Airfield :
LOGIN :

Register | Disclaimer

   EN    FR    IT 

 










Legend :    VFR   Marginal VFR   IFR   Intensive IFR   Very Intensive IFR
Visi :
Ceiling :
>= 8 km
>= 3000ft
5 to 8 km
1000 to 3000 ft
1500m to 5 km
500 to 1000 ft
800 to 1500m
200 to 500 ft
< 800m
< 200 ft
Symbols :   Thunderstorms  Fog  Heavy snow  Heavy precipitations  Wind > 20 kt
SIGMETs :     Misc.  Thunderstorms  Icing  Turbulence  Mountain Waves  Volcanic Ashes







- Airport Elevation : 1363 ft


ETIC - Grafenwohr Army Air Field

CURRENT METAR :
  • 251356Z AUTO 00000KT 9999 FEW055 13/M02 A3063 RMK AO2 SLP384 T01271016 TSNO $

EXPIRED METARs :
  • 251256Z AUTO 33005KT 9999 BKN050 12/01 A3063 RMK AO2 SLP386 T01160007 TSNO $
  • 251156Z AUTO 27003KT 9999 FEW043 BKN050 11/00 A3064 RMK AO2 SLP389 70001 T01111001 10111 20011 55003 TSNO $

TAF TAF ETIC
Valid from the 25 at 14:00 until the 26 at 20:00 UTC


251400Z 2514/2620 05009KT 9999 FEW080 QNH3060INS
BECMG 2516/2517 VRB06KT 9999 FEW060 QNH3050INS
BECMG 2613/2614 21009KT 9999 SKC QNH3046INS TX13/2613Z TN01/2603Z
No reported NOTAMs for that airfield.



MET'MAP, your aeronautical weather chart ! - Copyright ORBIFLY December 2007 - Disclaimer

ORBIFLY MET'MAP TEAM :

Programming & Development : Alexandra Zaïnal
Concept & Development : Baudouin d'Aumeries
Co-Development & Prog : Marc-Olivier Méhu
Technical & hardware support : Manuel Goepfert

Contact : metmap@orbifly.com




SOURCES & CREDITS :

   NOAA